sensor_id;sensor_type;location;lat;lon;timestamp;temperature;humidity
46139;DHT22;32398;49.112;8.598;2023-03-23T00:01:38;14.40;64.70
46139;DHT22;32398;49.112;8.598;2023-03-23T00:04:04;14.40;64.70
46139;DHT22;32398;49.112;8.598;2023-03-23T00:06:32;14.40;64.70
46139;DHT22;32398;49.112;8.598;2023-03-23T00:09:00;14.40;64.70
46139;DHT22;32398;49.112;8.598;2023-03-23T00:11:29;14.40;64.70
46139;DHT22;32398;49.112;8.598;2023-03-23T00:13:56;14.30;64.50
46139;DHT22;32398;49.112;8.598;2023-03-23T00:16:28;14.40;65.00
46139;DHT22;32398;49.112;8.598;2023-03-23T00:18:56;14.40;65.10
46139;DHT22;32398;49.112;8.598;2023-03-23T00:21:23;14.30;64.80
46139;DHT22;32398;49.112;8.598;2023-03-23T00:23:59;14.30;65.60
46139;DHT22;32398;49.112;8.598;2023-03-23T00:26:25;14.30;65.10
46139;DHT22;32398;49.112;8.598;2023-03-23T00:28:54;14.40;65.20
46139;DHT22;32398;49.112;8.598;2023-03-23T00:31:21;14.30;65.20
46139;DHT22;32398;49.112;8.598;2023-03-23T00:33:49;14.30;65.20
46139;DHT22;32398;49.112;8.598;2023-03-23T00:36:15;14.30;65.30
46139;DHT22;32398;49.112;8.598;2023-03-23T00:38:43;14.30;65.30
46139;DHT22;32398;49.112;8.598;2023-03-23T00:41:09;14.30;65.40
46139;DHT22;32398;49.112;8.598;2023-03-23T00:43:36;14.30;65.40
46139;DHT22;32398;49.112;8.598;2023-03-23T00:46:04;14.30;65.40
46139;DHT22;32398;49.112;8.598;2023-03-23T00:48:35;14.30;65.60
46139;DHT22;32398;49.112;8.598;2023-03-23T00:51:03;14.30;65.80
46139;DHT22;32398;49.112;8.598;2023-03-23T00:53:31;14.30;66.00
46139;DHT22;32398;49.112;8.598;2023-03-23T00:55:58;14.20;66.10
46139;DHT22;32398;49.112;8.598;2023-03-23T00:58:24;14.20;66.30
46139;DHT22;32398;49.112;8.598;2023-03-23T01:00:51;14.20;67.20
46139;DHT22;32398;49.112;8.598;2023-03-23T01:03:17;14.20;66.70
46139;DHT22;32398;49.112;8.598;2023-03-23T01:05:44;14.20;66.60
46139;DHT22;32398;49.112;8.598;2023-03-23T01:08:13;14.20;66.70
46139;DHT22;32398;49.112;8.598;2023-03-23T01:10:41;14.20;66.70
46139;DHT22;32398;49.112;8.598;2023-03-23T01:13:08;14.20;66.90
46139;DHT22;32398;49.112;8.598;2023-03-23T01:15:34;14.20;66.90
46139;DHT22;32398;49.112;8.598;2023-03-23T01:18:02;14.20;66.80
46139;DHT22;32398;49.112;8.598;2023-03-23T01:20:28;14.10;66.90
46139;DHT22;32398;49.112;8.598;2023-03-23T01:22:56;14.20;66.90
46139;DHT22;32398;49.112;8.598;2023-03-23T01:25:27;14.20;66.40
46139;DHT22;32398;49.112;8.598;2023-03-23T01:27:54;14.10;66.50
46139;DHT22;32398;49.112;8.598;2023-03-23T01:30:21;14.10;66.70
46139;DHT22;32398;49.112;8.598;2023-03-23T01:32:48;14.10;66.40
46139;DHT22;32398;49.112;8.598;2023-03-23T01:35:15;14.10;66.40
46139;DHT22;32398;49.112;8.598;2023-03-23T01:37:41;14.10;66.50
46139;DHT22;32398;49.112;8.598;2023-03-23T01:40:09;14.10;67.20
46139;DHT22;32398;49.112;8.598;2023-03-23T01:42:37;14.10;66.40
46139;DHT22;32398;49.112;8.598;2023-03-23T01:47:48;14.00;66.30
46139;DHT22;32398;49.112;8.598;2023-03-23T01:50:16;14.10;66.00
46139;DHT22;32398;49.112;8.598;2023-03-23T01:52:43;14.10;66.00
46139;DHT22;32398;49.112;8.598;2023-03-23T01:55:10;14.10;66.10
46139;DHT22;32398;49.112;8.598;2023-03-23T01:57:38;14.10;66.00
46139;DHT22;32398;49.112;8.598;2023-03-23T02:00:06;14.10;67.00
46139;DHT22;32398;49.112;8.598;2023-03-23T02:02:40;14.10;66.20
46139;DHT22;32398;49.112;8.598;2023-03-23T02:05:08;14.10;65.90
46139;DHT22;32398;49.112;8.598;2023-03-23T02:07:37;14.10;65.90
46139;DHT22;32398;49.112;8.598;2023-03-23T02:10:03;14.10;66.00
46139;DHT22;32398;49.112;8.598;2023-03-23T02:12:30;14.10;65.90
46139;DHT22;32398;49.112;8.598;2023-03-23T02:14:58;14.10;66.00
46139;DHT22;32398;49.112;8.598;2023-03-23T02:17:26;14.10;66.10
46139;DHT22;32398;49.112;8.598;2023-03-23T02:20:06;14.10;66.20
46139;DHT22;32398;49.112;8.598;2023-03-23T02:22:50;14.10;66.10
46139;DHT22;32398;49.112;8.598;2023-03-23T02:25:36;14.00;65.80
46139;DHT22;32398;49.112;8.598;2023-03-23T02:28:15;14.10;65.80
46139;DHT22;32398;49.112;8.598;2023-03-23T02:30:52;14.10;65.70
46139;DHT22;32398;49.112;8.598;2023-03-23T02:36:07;14.10;65.70
46139;DHT22;32398;49.112;8.598;2023-03-23T02:38:37;14.10;65.50
46139;DHT22;32398;49.112;8.598;2023-03-23T02:41:06;14.10;65.50
46139;DHT22;32398;49.112;8.598;2023-03-23T02:43:36;14.10;65.50
46139;DHT22;32398;49.112;8.598;2023-03-23T02:46:04;14.10;65.50
46139;DHT22;32398;49.112;8.598;2023-03-23T02:48:32;14.10;65.50
46139;DHT22;32398;49.112;8.598;2023-03-23T02:50:59;14.00;65.60
46139;DHT22;32398;49.112;8.598;2023-03-23T02:53:28;14.10;65.70
46139;DHT22;32398;49.112;8.598;2023-03-23T02:55:55;14.10;65.70
46139;DHT22;32398;49.112;8.598;2023-03-23T02:58:23;14.10;65.80
46139;DHT22;32398;49.112;8.598;2023-03-23T03:00:51;14.10;65.90
46139;DHT22;32398;49.112;8.598;2023-03-23T03:03:18;14.10;65.90
46139;DHT22;32398;49.112;8.598;2023-03-23T03:05:49;14.10;65.80
46139;DHT22;32398;49.112;8.598;2023-03-23T03:08:18;14.00;65.70
46139;DHT22;32398;49.112;8.598;2023-03-23T03:10:50;14.10;65.80
46139;DHT22;32398;49.112;8.598;2023-03-23T03:13:24;14.10;65.80
46139;DHT22;32398;49.112;8.598;2023-03-23T03:15:53;14.10;66.00
46139;DHT22;32398;49.112;8.598;2023-03-23T03:18:21;14.10;66.10
46139;DHT22;32398;49.112;8.598;2023-03-23T03:20:49;14.10;66.10
46139;DHT22;32398;49.112;8.598;2023-03-23T03:23:18;14.10;66.20
46139;DHT22;32398;49.112;8.598;2023-03-23T03:25:46;14.10;66.20
46139;DHT22;32398;49.112;8.598;2023-03-23T03:28:16;14.10;67.00
46139;DHT22;32398;49.112;8.598;2023-03-23T03:30:47;14.00;66.20
46139;DHT22;32398;49.112;8.598;2023-03-23T03:33:14;14.10;66.30
46139;DHT22;32398;49.112;8.598;2023-03-23T03:35:40;14.10;66.30
46139;DHT22;32398;49.112;8.598;2023-03-23T03:38:08;14.00;66.20
46139;DHT22;32398;49.112;8.598;2023-03-23T03:40:35;14.10;66.10
46139;DHT22;32398;49.112;8.598;2023-03-23T03:43:02;14.10;66.10
46139;DHT22;32398;49.112;8.598;2023-03-23T03:45:31;14.00;66.10
46139;DHT22;32398;49.112;8.598;2023-03-23T03:47:57;14.10;66.30
46139;DHT22;32398;49.112;8.598;2023-03-23T03:50:24;14.00;66.30
46139;DHT22;32398;49.112;8.598;2023-03-23T03:52:51;14.00;66.40
46139;DHT22;32398;49.112;8.598;2023-03-23T03:55:18;14.10;66.50
46139;DHT22;32398;49.112;8.598;2023-03-23T03:57:44;14.00;66.50
46139;DHT22;32398;49.112;8.598;2023-03-23T04:00:11;14.10;66.70
46139;DHT22;32398;49.112;8.598;2023-03-23T04:02:42;14.00;66.80
46139;DHT22;32398;49.112;8.598;2023-03-23T04:05:09;14.00;66.90
46139;DHT22;32398;49.112;8.598;2023-03-23T04:07:36;14.00;67.10
46139;DHT22;32398;49.112;8.598;2023-03-23T04:10:05;14.00;67.20
46139;DHT22;32398;49.112;8.598;2023-03-23T04:12:32;14.00;67.30
46139;DHT22;32398;49.112;8.598;2023-03-23T04:14:58;14.00;67.40
46139;DHT22;32398;49.112;8.598;2023-03-23T04:17:25;14.00;67.40
46139;DHT22;32398;49.112;8.598;2023-03-23T04:19:54;14.00;67.50
46139;DHT22;32398;49.112;8.598;2023-03-23T04:22:22;14.00;67.70
46139;DHT22;32398;49.112;8.598;2023-03-23T04:24:55;14.00;67.70
46139;DHT22;32398;49.112;8.598;2023-03-23T04:27:24;14.00;67.70
46139;DHT22;32398;49.112;8.598;2023-03-23T04:29:50;14.00;67.80
46139;DHT22;32398;49.112;8.598;2023-03-23T04:32:17;14.00;67.90
46139;DHT22;32398;49.112;8.598;2023-03-23T04:34:43;14.00;68.10
46139;DHT22;32398;49.112;8.598;2023-03-23T04:37:11;14.00;68.20
46139;DHT22;32398;49.112;8.598;2023-03-23T04:39:38;14.00;68.30
46139;DHT22;32398;49.112;8.598;2023-03-23T04:42:06;14.00;68.40
46139;DHT22;32398;49.112;8.598;2023-03-23T04:44:34;14.00;68.50
46139;DHT22;32398;49.112;8.598;2023-03-23T04:47:01;14.00;68.60
46139;DHT22;32398;49.112;8.598;2023-03-23T04:49:27;13.90;68.60
46139;DHT22;32398;49.112;8.598;2023-03-23T04:51:55;14.00;68.80
46139;DHT22;32398;49.112;8.598;2023-03-23T04:54:23;14.00;68.90
46139;DHT22;32398;49.112;8.598;2023-03-23T04:56:49;13.90;68.90
46139;DHT22;32398;49.112;8.598;2023-03-23T04:59:16;13.90;68.90
46139;DHT22;32398;49.112;8.598;2023-03-23T05:01:42;13.90;69.00
46139;DHT22;32398;49.112;8.598;2023-03-23T05:04:11;13.90;69.00
46139;DHT22;32398;49.112;8.598;2023-03-23T05:06:41;13.90;69.20
46139;DHT22;32398;49.112;8.598;2023-03-23T05:09:09;13.90;69.20
46139;DHT22;32398;49.112;8.598;2023-03-23T05:11:38;13.90;69.20
46139;DHT22;32398;49.112;8.598;2023-03-23T05:14:04;13.90;69.30
46139;DHT22;32398;49.112;8.598;2023-03-23T05:16:31;13.90;69.30
46139;DHT22;32398;49.112;8.598;2023-03-23T05:18:57;13.90;69.40
46139;DHT22;32398;49.112;8.598;2023-03-23T05:21:24;13.90;69.40
46139;DHT22;32398;49.112;8.598;2023-03-23T05:23:51;13.90;69.50
46139;DHT22;32398;49.112;8.598;2023-03-23T05:26:19;13.90;69.60
46139;DHT22;32398;49.112;8.598;2023-03-23T05:28:47;13.90;69.80
46139;DHT22;32398;49.112;8.598;2023-03-23T05:31:17;13.90;69.90
46139;DHT22;32398;49.112;8.598;2023-03-23T05:33:44;13.90;70.70
46139;DHT22;32398;49.112;8.598;2023-03-23T05:36:11;13.90;71.50
46139;DHT22;32398;49.112;8.598;2023-03-23T05:38:38;13.90;71.70
46139;DHT22;32398;49.112;8.598;2023-03-23T05:41:07;13.80;71.60
46139;DHT22;32398;49.112;8.598;2023-03-23T05:43:34;13.90;71.80
46139;DHT22;32398;49.112;8.598;2023-03-23T05:46:01;13.90;71.90
46139;DHT22;32398;49.112;8.598;2023-03-23T05:48:28;13.90;72.20
46139;DHT22;32398;49.112;8.598;2023-03-23T05:50:55;13.80;72.40
46139;DHT22;32398;49.112;8.598;2023-03-23T05:53:22;13.80;72.60
46139;DHT22;32398;49.112;8.598;2023-03-23T05:55:49;13.80;72.70
46139;DHT22;32398;49.112;8.598;2023-03-23T05:58:16;13.80;72.60
46139;DHT22;32398;49.112;8.598;2023-03-23T06:00:43;13.80;72.60
46139;DHT22;32398;49.112;8.598;2023-03-23T06:03:11;13.80;72.60
46139;DHT22;32398;49.112;8.598;2023-03-23T06:05:41;13.80;72.60
46139;DHT22;32398;49.112;8.598;2023-03-23T06:08:09;13.80;72.60
46139;DHT22;32398;49.112;8.598;2023-03-23T06:10:36;13.80;72.60
46139;DHT22;32398;49.112;8.598;2023-03-23T06:13:03;13.80;73.50
46139;DHT22;32398;49.112;8.598;2023-03-23T06:15:30;13.80;72.80
46139;DHT22;32398;49.112;8.598;2023-03-23T06:17:58;13.80;72.80
46139;DHT22;32398;49.112;8.598;2023-03-23T06:20:26;13.80;72.80
46139;DHT22;32398;49.112;8.598;2023-03-23T06:22:52;13.80;72.80
46139;DHT22;32398;49.112;8.598;2023-03-23T06:25:19;13.70;72.80
46139;DHT22;32398;49.112;8.598;2023-03-23T06:27:45;13.70;72.80
46139;DHT22;32398;49.112;8.598;2023-03-23T06:30:12;13.70;72.90
46139;DHT22;32398;49.112;8.598;2023-03-23T06:32:40;13.70;73.10
46139;DHT22;32398;49.112;8.598;2023-03-23T06:35:07;13.70;73.00
46139;DHT22;32398;49.112;8.598;2023-03-23T06:37:36;13.70;73.10
46139;DHT22;32398;49.112;8.598;2023-03-23T06:40:03;13.70;73.20
46139;DHT22;32398;49.112;8.598;2023-03-23T06:42:31;13.70;73.30
46139;DHT22;32398;49.112;8.598;2023-03-23T06:44:58;13.70;73.50
46139;DHT22;32398;49.112;8.598;2023-03-23T06:47:25;13.70;73.60
46139;DHT22;32398;49.112;8.598;2023-03-23T06:49:52;13.70;73.70
46139;DHT22;32398;49.112;8.598;2023-03-23T06:52:19;13.70;73.90
46139;DHT22;32398;49.112;8.598;2023-03-23T06:54:47;13.60;73.90
46139;DHT22;32398;49.112;8.598;2023-03-23T06:57:13;13.70;74.00
46139;DHT22;32398;49.112;8.598;2023-03-23T06:59:40;13.70;74.10
46139;DHT22;32398;49.112;8.598;2023-03-23T07:02:08;13.60;74.20
46139;DHT22;32398;49.112;8.598;2023-03-23T07:04:34;13.70;74.30
46139;DHT22;32398;49.112;8.598;2023-03-23T07:07:01;13.60;74.30
46139;DHT22;32398;49.112;8.598;2023-03-23T07:09:27;13.60;74.40
46139;DHT22;32398;49.112;8.598;2023-03-23T07:11:55;13.60;74.40
46139;DHT22;32398;49.112;8.598;2023-03-23T07:14:22;13.60;74.40
46139;DHT22;32398;49.112;8.598;2023-03-23T07:16:49;13.60;74.50
46139;DHT22;32398;49.112;8.598;2023-03-23T07:19:15;13.60;74.60
46139;DHT22;32398;49.112;8.598;2023-03-23T07:21:42;13.70;74.80
46139;DHT22;32398;49.112;8.598;2023-03-23T07:24:10;13.60;74.70
46139;DHT22;32398;49.112;8.598;2023-03-23T07:26:37;13.60;75.00
46139;DHT22;32398;49.112;8.598;2023-03-23T07:29:05;13.60;75.20
46139;DHT22;32398;49.112;8.598;2023-03-23T07:31:32;13.60;76.10
46139;DHT22;32398;49.112;8.598;2023-03-23T07:33:58;13.60;75.60
46139;DHT22;32398;49.112;8.598;2023-03-23T07:36:26;13.60;75.60
46139;DHT22;32398;49.112;8.598;2023-03-23T07:38:52;13.60;75.70
46139;DHT22;32398;49.112;8.598;2023-03-23T07:41:20;13.60;75.60
46139;DHT22;32398;49.112;8.598;2023-03-23T07:43:47;13.60;76.00
46139;DHT22;32398;49.112;8.598;2023-03-23T07:46:14;13.60;76.40
46139;DHT22;32398;49.112;8.598;2023-03-23T07:48:41;13.60;76.50
46139;DHT22;32398;49.112;8.598;2023-03-23T07:51:08;13.60;76.40
46139;DHT22;32398;49.112;8.598;2023-03-23T07:53:34;13.60;76.50
46139;DHT22;32398;49.112;8.598;2023-03-23T07:56:01;13.60;76.80
46139;DHT22;32398;49.112;8.598;2023-03-23T07:58:28;13.60;76.80
46139;DHT22;32398;49.112;8.598;2023-03-23T08:00:55;13.60;76.80
46139;DHT22;32398;49.112;8.598;2023-03-23T08:03:24;13.60;77.10
46139;DHT22;32398;49.112;8.598;2023-03-23T08:05:51;13.60;77.10
46139;DHT22;32398;49.112;8.598;2023-03-23T08:08:17;13.60;77.20
46139;DHT22;32398;49.112;8.598;2023-03-23T08:10:44;13.50;77.40
46139;DHT22;32398;49.112;8.598;2023-03-23T08:13:11;13.60;77.50
46139;DHT22;32398;49.112;8.598;2023-03-23T08:15:37;13.60;77.60
46139;DHT22;32398;49.112;8.598;2023-03-23T08:18:04;13.60;77.80
46139;DHT22;32398;49.112;8.598;2023-03-23T08:20:32;13.50;77.80
46139;DHT22;32398;49.112;8.598;2023-03-23T08:22:59;13.60;77.80
46139;DHT22;32398;49.112;8.598;2023-03-23T08:25:27;13.50;77.70
46139;DHT22;32398;49.112;8.598;2023-03-23T08:27:56;13.50;77.60
46139;DHT22;32398;49.112;8.598;2023-03-23T08:30:23;13.50;77.70
46139;DHT22;32398;49.112;8.598;2023-03-23T08:32:51;13.60;77.80
46139;DHT22;32398;49.112;8.598;2023-03-23T08:35:18;13.50;77.70
46139;DHT22;32398;49.112;8.598;2023-03-23T08:37:46;13.50;77.80
46139;DHT22;32398;49.112;8.598;2023-03-23T08:40:17;13.50;77.90
46139;DHT22;32398;49.112;8.598;2023-03-23T08:42:45;13.50;78.10
46139;DHT22;32398;49.112;8.598;2023-03-23T08:45:13;13.50;78.00
46139;DHT22;32398;49.112;8.598;2023-03-23T08:47:40;13.50;78.20
46139;DHT22;32398;49.112;8.598;2023-03-23T08:50:08;13.60;78.30
46139;DHT22;32398;49.112;8.598;2023-03-23T08:52:36;13.60;78.40
46139;DHT22;32398;49.112;8.598;2023-03-23T08:55:04;13.50;78.60
46139;DHT22;32398;49.112;8.598;2023-03-23T08:57:34;13.60;79.00
46139;DHT22;32398;49.112;8.598;2023-03-23T09:00:01;13.60;79.40
46139;DHT22;32398;49.112;8.598;2023-03-23T09:02:39;13.60;79.60
46139;DHT22;32398;49.112;8.598;2023-03-23T09:05:05;13.60;79.30
46139;DHT22;32398;49.112;8.598;2023-03-23T09:07:32;13.60;79.50
46139;DHT22;32398;49.112;8.598;2023-03-23T09:09:59;13.60;80.00
46139;DHT22;32398;49.112;8.598;2023-03-23T09:12:27;13.60;80.00
46139;DHT22;32398;49.112;8.598;2023-03-23T09:14:54;13.60;80.10
46139;DHT22;32398;49.112;8.598;2023-03-23T09:17:21;13.60;80.20
46139;DHT22;32398;49.112;8.598;2023-03-23T09:19:48;13.60;80.00
46139;DHT22;32398;49.112;8.598;2023-03-23T09:22:14;13.60;80.10
46139;DHT22;32398;49.112;8.598;2023-03-23T09:24:44;13.60;80.50
46139;DHT22;32398;49.112;8.598;2023-03-23T09:27:11;13.60;80.70
46139;DHT22;32398;49.112;8.598;2023-03-23T09:29:39;13.60;80.80
46139;DHT22;32398;49.112;8.598;2023-03-23T09:32:06;13.60;80.80
46139;DHT22;32398;49.112;8.598;2023-03-23T09:34:33;13.60;80.70
46139;DHT22;32398;49.112;8.598;2023-03-23T09:37:01;13.60;80.90
46139;DHT22;32398;49.112;8.598;2023-03-23T09:39:29;13.60;81.10
46139;DHT22;32398;49.112;8.598;2023-03-23T09:42:12;13.60;81.20
46139;DHT22;32398;49.112;8.598;2023-03-23T09:44:48;13.60;81.20
46139;DHT22;32398;49.112;8.598;2023-03-23T09:47:18;13.60;81.30
46139;DHT22;32398;49.112;8.598;2023-03-23T09:49:48;13.70;81.20
46139;DHT22;32398;49.112;8.598;2023-03-23T09:52:17;13.60;81.30
46139;DHT22;32398;49.112;8.598;2023-03-23T09:54:45;13.70;81.40
46139;DHT22;32398;49.112;8.598;2023-03-23T09:57:15;13.70;81.30
46139;DHT22;32398;49.112;8.598;2023-03-23T09:59:45;13.70;81.50
46139;DHT22;32398;49.112;8.598;2023-03-23T10:02:14;13.70;81.50
46139;DHT22;32398;49.112;8.598;2023-03-23T10:04:43;13.70;81.60
46139;DHT22;32398;49.112;8.598;2023-03-23T10:07:12;13.70;81.60
46139;DHT22;32398;49.112;8.598;2023-03-23T10:09:39;13.70;81.90
46139;DHT22;32398;49.112;8.598;2023-03-23T10:12:09;13.70;82.30
46139;DHT22;32398;49.112;8.598;2023-03-23T10:14:41;13.70;82.70
46139;DHT22;32398;49.112;8.598;2023-03-23T10:17:11;13.60;82.50
46139;DHT22;32398;49.112;8.598;2023-03-23T10:19:42;13.70;83.00
46139;DHT22;32398;49.112;8.598;2023-03-23T10:22:12;13.70;83.60
46139;DHT22;32398;49.112;8.598;2023-03-23T10:24:40;13.70;84.10
46139;DHT22;32398;49.112;8.598;2023-03-23T10:27:13;13.70;84.20
46139;DHT22;32398;49.112;8.598;2023-03-23T10:29:43;13.70;84.10
46139;DHT22;32398;49.112;8.598;2023-03-23T10:32:13;13.70;84.30
46139;DHT22;32398;49.112;8.598;2023-03-23T10:34:43;13.70;84.50
46139;DHT22;32398;49.112;8.598;2023-03-23T10:37:11;13.70;84.80
46139;DHT22;32398;49.112;8.598;2023-03-23T10:39:42;13.60;85.20
46139;DHT22;32398;49.112;8.598;2023-03-23T10:42:10;13.70;85.50
46139;DHT22;32398;49.112;8.598;2023-03-23T10:44:36;13.70;86.20
46139;DHT22;32398;49.112;8.598;2023-03-23T10:47:04;13.60;86.60
46139;DHT22;32398;49.112;8.598;2023-03-23T10:49:33;13.70;87.00
46139;DHT22;32398;49.112;8.598;2023-03-23T10:52:03;13.60;87.10
46139;DHT22;32398;49.112;8.598;2023-03-23T10:54:32;13.60;86.80
46139;DHT22;32398;49.112;8.598;2023-03-23T10:57:00;13.60;86.80
46139;DHT22;32398;49.112;8.598;2023-03-23T10:59:27;13.60;87.20
46139;DHT22;32398;49.112;8.598;2023-03-23T11:01:55;13.60;87.20
46139;DHT22;32398;49.112;8.598;2023-03-23T11:04:24;13.60;86.90
46139;DHT22;32398;49.112;8.598;2023-03-23T11:06:51;13.60;86.80
46139;DHT22;32398;49.112;8.598;2023-03-23T11:09:20;13.60;87.00
46139;DHT22;32398;49.112;8.598;2023-03-23T11:11:49;13.60;87.10
46139;DHT22;32398;49.112;8.598;2023-03-23T11:14:16;13.60;87.20
46139;DHT22;32398;49.112;8.598;2023-03-23T11:16:45;13.60;87.00
46139;DHT22;32398;49.112;8.598;2023-03-23T11:19:12;13.60;87.50
46139;DHT22;32398;49.112;8.598;2023-03-23T11:21:40;13.60;88.00
46139;DHT22;32398;49.112;8.598;2023-03-23T11:24:11;13.60;88.00
46139;DHT22;32398;49.112;8.598;2023-03-23T11:26:39;13.70;87.90
46139;DHT22;32398;49.112;8.598;2023-03-23T11:29:11;13.60;88.00
46139;DHT22;32398;49.112;8.598;2023-03-23T11:31:39;13.60;87.80
46139;DHT22;32398;49.112;8.598;2023-03-23T11:34:09;13.70;88.50
46139;DHT22;32398;49.112;8.598;2023-03-23T11:36:39;13.60;87.50
46139;DHT22;32398;49.112;8.598;2023-03-23T11:39:18;13.70;87.50
46139;DHT22;32398;49.112;8.598;2023-03-23T11:41:47;13.70;87.40
46139;DHT22;32398;49.112;8.598;2023-03-23T11:44:14;13.70;87.50
46139;DHT22;32398;49.112;8.598;2023-03-23T11:46:47;13.70;87.40
46139;DHT22;32398;49.112;8.598;2023-03-23T11:49:18;13.70;87.30
46139;DHT22;32398;49.112;8.598;2023-03-23T11:51:47;13.70;87.30
46139;DHT22;32398;49.112;8.598;2023-03-23T11:54:15;13.70;87.10
46139;DHT22;32398;49.112;8.598;2023-03-23T11:56:43;13.70;87.00
46139;DHT22;32398;49.112;8.598;2023-03-23T11:59:12;13.70;86.90
46139;DHT22;32398;49.112;8.598;2023-03-23T12:01:43;13.70;86.70
46139;DHT22;32398;49.112;8.598;2023-03-23T12:06:58;13.70;86.60
46139;DHT22;32398;49.112;8.598;2023-03-23T12:09:34;13.70;86.50
46139;DHT22;32398;49.112;8.598;2023-03-23T12:12:07;13.70;86.40
46139;DHT22;32398;49.112;8.598;2023-03-23T12:14:40;13.70;86.40
46139;DHT22;32398;49.112;8.598;2023-03-23T12:17:14;13.70;86.30
46139;DHT22;32398;49.112;8.598;2023-03-23T12:19:44;13.70;86.40
46139;DHT22;32398;49.112;8.598;2023-03-23T12:22:17;13.80;86.30
46139;DHT22;32398;49.112;8.598;2023-03-23T12:24:52;13.80;86.10
46139;DHT22;32398;49.112;8.598;2023-03-23T12:27:20;13.70;85.90
46139;DHT22;32398;49.112;8.598;2023-03-23T12:29:59;13.70;85.80
46139;DHT22;32398;49.112;8.598;2023-03-23T12:32:41;13.80;85.70
46139;DHT22;32398;49.112;8.598;2023-03-23T12:35:13;13.80;85.60
46139;DHT22;32398;49.112;8.598;2023-03-23T12:37:45;13.70;85.50
46139;DHT22;32398;49.112;8.598;2023-03-23T12:40:27;13.80;85.50
46139;DHT22;32398;49.112;8.598;2023-03-23T12:42:56;13.80;85.50
46139;DHT22;32398;49.112;8.598;2023-03-23T12:45:37;13.80;85.50
46139;DHT22;32398;49.112;8.598;2023-03-23T12:48:08;13.80;85.40
46139;DHT22;32398;49.112;8.598;2023-03-23T12:50:37;13.80;85.30
46139;DHT22;32398;49.112;8.598;2023-03-23T12:53:08;13.80;85.30
46139;DHT22;32398;49.112;8.598;2023-03-23T12:55:37;13.80;85.20
46139;DHT22;32398;49.112;8.598;2023-03-23T12:58:07;13.80;85.30
46139;DHT22;32398;49.112;8.598;2023-03-23T13:00:46;13.80;85.30
46139;DHT22;32398;49.112;8.598;2023-03-23T13:03:16;13.80;85.20
46139;DHT22;32398;49.112;8.598;2023-03-23T13:05:47;13.80;85.10
46139;DHT22;32398;49.112;8.598;2023-03-23T13:08:21;13.80;85.00
46139;DHT22;32398;49.112;8.598;2023-03-23T13:10:50;13.80;84.90
46139;DHT22;32398;49.112;8.598;2023-03-23T13:13:17;13.80;84.70
46139;DHT22;32398;49.112;8.598;2023-03-23T13:15:48;13.80;84.70
46139;DHT22;32398;49.112;8.598;2023-03-23T13:18:18;13.90;84.70
46139;DHT22;32398;49.112;8.598;2023-03-23T13:20:49;13.90;84.60
46139;DHT22;32398;49.112;8.598;2023-03-23T13:23:18;13.80;84.50
46139;DHT22;32398;49.112;8.598;2023-03-23T13:25:55;13.80;84.50
46139;DHT22;32398;49.112;8.598;2023-03-23T13:28:25;13.90;84.50
46139;DHT22;32398;49.112;8.598;2023-03-23T13:31:02;13.80;84.40
46139;DHT22;32398;49.112;8.598;2023-03-23T13:33:29;13.90;84.40
46139;DHT22;32398;49.112;8.598;2023-03-23T13:35:56;13.90;84.30
46139;DHT22;32398;49.112;8.598;2023-03-23T13:38:30;13.90;84.20
46139;DHT22;32398;49.112;8.598;2023-03-23T13:40:57;13.80;84.00
46139;DHT22;32398;49.112;8.598;2023-03-23T13:43:26;13.90;83.90
46139;DHT22;32398;49.112;8.598;2023-03-23T13:45:53;13.90;83.80
46139;DHT22;32398;49.112;8.598;2023-03-23T13:48:23;13.90;83.70
46139;DHT22;32398;49.112;8.598;2023-03-23T13:50:51;13.90;83.60
46139;DHT22;32398;49.112;8.598;2023-03-23T13:53:22;13.90;83.50
46139;DHT22;32398;49.112;8.598;2023-03-23T13:55:51;14.00;83.40
46139;DHT22;32398;49.112;8.598;2023-03-23T13:58:22;14.00;83.30
46139;DHT22;32398;49.112;8.598;2023-03-23T14:01:00;14.00;83.20
46139;DHT22;32398;49.112;8.598;2023-03-23T14:03:32;13.90;83.00
46139;DHT22;32398;49.112;8.598;2023-03-23T14:06:01;14.00;82.90
46139;DHT22;32398;49.112;8.598;2023-03-23T14:08:36;14.10;82.90
46139;DHT22;32398;49.112;8.598;2023-03-23T14:11:09;14.00;82.70
46139;DHT22;32398;49.112;8.598;2023-03-23T14:13:41;14.00;82.60
46139;DHT22;32398;49.112;8.598;2023-03-23T14:16:13;14.10;82.60
46139;DHT22;32398;49.112;8.598;2023-03-23T14:18:47;14.10;82.50
46139;DHT22;32398;49.112;8.598;2023-03-23T14:21:17;14.10;82.50
46139;DHT22;32398;49.112;8.598;2023-03-23T14:23:47;14.10;82.40
46139;DHT22;32398;49.112;8.598;2023-03-23T14:26:15;14.00;82.30
46139;DHT22;32398;49.112;8.598;2023-03-23T14:28:43;14.10;82.40
46139;DHT22;32398;49.112;8.598;2023-03-23T14:31:14;14.10;82.40
46139;DHT22;32398;49.112;8.598;2023-03-23T14:33:43;14.10;82.40
46139;DHT22;32398;49.112;8.598;2023-03-23T14:36:10;14.10;82.40
46139;DHT22;32398;49.112;8.598;2023-03-23T14:38:36;14.10;82.30
46139;DHT22;32398;49.112;8.598;2023-03-23T14:41:04;14.10;82.10
46139;DHT22;32398;49.112;8.598;2023-03-23T14:43:32;14.10;81.70
46139;DHT22;32398;49.112;8.598;2023-03-23T14:46:00;14.20;81.90
46139;DHT22;32398;49.112;8.598;2023-03-23T14:48:27;14.10;82.00
46139;DHT22;32398;49.112;8.598;2023-03-23T14:50:57;14.10;81.90
46139;DHT22;32398;49.112;8.598;2023-03-23T14:53:24;14.10;82.00
46139;DHT22;32398;49.112;8.598;2023-03-23T14:55:51;14.10;82.10
46139;DHT22;32398;49.112;8.598;2023-03-23T14:58:19;14.10;82.20
46139;DHT22;32398;49.112;8.598;2023-03-23T15:00:46;14.10;82.20
46139;DHT22;32398;49.112;8.598;2023-03-23T15:03:14;14.10;82.30
46139;DHT22;32398;49.112;8.598;2023-03-23T15:05:42;14.10;82.40
46139;DHT22;32398;49.112;8.598;2023-03-23T15:08:12;14.10;82.50
46139;DHT22;32398;49.112;8.598;2023-03-23T15:10:40;14.10;82.50
46139;DHT22;32398;49.112;8.598;2023-03-23T15:13:08;14.10;82.60
46139;DHT22;32398;49.112;8.598;2023-03-23T15:15:36;14.10;82.60
46139;DHT22;32398;49.112;8.598;2023-03-23T15:18:03;14.10;82.70
46139;DHT22;32398;49.112;8.598;2023-03-23T15:20:31;14.10;82.80
46139;DHT22;32398;49.112;8.598;2023-03-23T15:23:04;14.10;82.90
46139;DHT22;32398;49.112;8.598;2023-03-23T15:25:33;14.20;84.20
46139;DHT22;32398;49.112;8.598;2023-03-23T15:28:07;14.20;84.40
46139;DHT22;32398;49.112;8.598;2023-03-23T15:30:45;14.40;84.30
46139;DHT22;32398;49.112;8.598;2023-03-23T15:33:13;14.50;84.60
46139;DHT22;32398;49.112;8.598;2023-03-23T15:35:41;14.60;83.50
46139;DHT22;32398;49.112;8.598;2023-03-23T15:38:15;14.70;83.30
46139;DHT22;32398;49.112;8.598;2023-03-23T15:40:48;14.70;83.00
46139;DHT22;32398;49.112;8.598;2023-03-23T15:43:16;14.80;82.80
46139;DHT22;32398;49.112;8.598;2023-03-23T15:45:56;14.90;82.70
46139;DHT22;32398;49.112;8.598;2023-03-23T15:48:25;14.90;82.50